Navin Eagle — V7LW4 — position and weather

sailwx.info

Track history (hours):
 
Tides and Currents Weather Stations Pressure Air Temp Water Temp Dewpoint Dewpoint Depression Visibility Wind Speed Wind Dir Waves Ship Positions

Navin Eagle

Last reported at 2018-Feb-02 12:16 UTC. Time now 2018-Feb-19 00:16 UTC.
Position N 37°18' W 000°53'.
Warning: this ship's position is 16 days out of date.

Length 114 m; draft 7.4 m.

Type: Cargo ship. MMSI: 538090486.

Date/timePositionNaut miles runAvg speedWind from/ knotsBaromVisibWave heightAir tempDewpointWater temp
2018-Feb-02 12:16N 37°18' W 000°53'226 8.6
2018-Feb-01 09:47N 35°55' W 005°15'3 9.1
2018-Feb-01 09:30N 35°54' W 005°18'1 1.7
2018-Feb-01 09:00N 35°54' W 005°19'0 0.0
2018-Feb-01 08:30N 35°54' W 005°19'0 0.0
2018-Feb-01 07:29N 35°54' W 005°19'0 0.0
2018-Feb-01 06:59N 35°54' W 005°19'0 0.0
2018-Feb-01 06:29N 35°54' W 005°19'0 0.0
2018-Feb-01 05:59N 35°54' W 005°19'0 0.0
2018-Feb-01 05:29N 35°54' W 005°19'0 0.0
2018-Feb-01 04:59N 35°54' W 005°19'0 0.0
2018-Feb-01 04:29N 35°54' W 005°19'0 0.0
2018-Feb-01 03:59N 35°54' W 005°19'0 0.0
2018-Feb-01 02:56N 35°54' W 005°19'0 0.0
2018-Feb-01 02:29N 35°54' W 005°19'0 0.0
2018-Feb-01 01:59N 35°54' W 005°19'0 0.1
2018-Feb-01 01:30N 35°54' W 005°19'1 2.1
2018-Feb-01 01:00N 35°55' W 005°19'1 1.7
2018-Feb-01 00:30N 35°55' W 005°20'1 1.6
2018-Jan-31 23:58N 35°56' W 005°20'0 0.5
2018-Jan-31 23:01N 35°56' W 005°20'0 0.1
2018-Jan-31 22:31N 35°56' W 005°20'0 0.1
2018-Jan-31 20:59N 35°56' W 005°20'0 0.3
2018-Jan-31 20:31N 35°56' W 005°20'3 6.1
2018-Jan-31 20:00N 35°57' W 005°24'4 7.8
2018-Jan-31 19:31N 35°57' W 005°29'  
2018-Jan-25 14:57N 47°17' W 001°57'19 1.1
2018-Jan-24 21:54N 47°08' W 002°22'3 7.2
2018-Jan-24 21:28N 47°10' W 002°19'7 8.3
2018-Jan-24 20:41N 47°15' W 002°13'2 9.3
2018-Jan-24 20:29N 47°17' W 002°11'  
Track history (hours):
 
Tides and Currents Weather Stations Pressure Air Temp Water Temp Dewpoint Dewpoint Depression Visibility Wind Speed Wind Dir Waves Ship Positions

Navin Eagle

Last reported at 2018-Feb-02 12:16 UTC. Time now 2018-Feb-19 00:16 UTC.
Position N 37°18' W 000°53'.
Warning: this ship's position is 16 days out of date.

Length 114 m; draft 7.4 m.

Type: Cargo ship. MMSI: 538090486.

Date/timePositionNaut miles runAvg speedWind from/ knotsBaromVisibWave heightAir tempDewpointWater temp
2018-Feb-02 12:16N 37°18' W 000°53'226 8.6
2018-Feb-01 09:47N 35°55' W 005°15'3 9.1
2018-Feb-01 09:30N 35°54' W 005°18'1 1.7
2018-Feb-01 09:00N 35°54' W 005°19'0 0.0
2018-Feb-01 08:30N 35°54' W 005°19'0 0.0
2018-Feb-01 07:29N 35°54' W 005°19'0 0.0
2018-Feb-01 06:59N 35°54' W 005°19'0 0.0
2018-Feb-01 06:29N 35°54' W 005°19'0 0.0
2018-Feb-01 05:59N 35°54' W 005°19'0 0.0
2018-Feb-01 05:29N 35°54' W 005°19'0 0.0
2018-Feb-01 04:59N 35°54' W 005°19'0 0.0
2018-Feb-01 04:29N 35°54' W 005°19'0 0.0
2018-Feb-01 03:59N 35°54' W 005°19'0 0.0
2018-Feb-01 02:56N 35°54' W 005°19'0 0.0
2018-Feb-01 02:29N 35°54' W 005°19'0 0.0
2018-Feb-01 01:59N 35°54' W 005°19'0 0.1
2018-Feb-01 01:30N 35°54' W 005°19'1 2.1
2018-Feb-01 01:00N 35°55' W 005°19'1 1.7
2018-Feb-01 00:30N 35°55' W 005°20'1 1.6
2018-Jan-31 23:58N 35°56' W 005°20'0 0.5
2018-Jan-31 23:01N 35°56' W 005°20'0 0.1
2018-Jan-31 22:31N 35°56' W 005°20'0 0.1
2018-Jan-31 20:59N 35°56' W 005°20'0 0.3
2018-Jan-31 20:31N 35°56' W 005°20'3 6.1
2018-Jan-31 20:00N 35°57' W 005°24'4 7.8
2018-Jan-31 19:31N 35°57' W 005°29'  
2018-Jan-25 14:57N 47°17' W 001°57'19 1.1
2018-Jan-24 21:54N 47°08' W 002°22'3 7.2
2018-Jan-24 21:28N 47°10' W 002°19'7 8.3
2018-Jan-24 20:41N 47°15' W 002°13'2 9.3
2018-Jan-24 20:29N 47°17' W 002°11'  

Dump ship's entire track history